Time;durP1;ratioP1;P1;durP2;ratioP2;P2;SDS_P1;SDS_P2;PMS_P1;PMS_P2;Temp;Humidity;BMP_temperature;BMP_pressure;BME280_temperature;BME280_humidity;BME280_pressure;Samples;Min_cycle;Max_cycle;Signal;HPM_P1;HPM_P2
2022/03/11 00:02:28;;;;;;;4.80;3.08;;;;;;;20.84;33.16;102175.09;5012191;28;20159;-65
2022/03/11 00:04:54;;;;;;;5.55;3.30;;;;;;;20.83;33.10;102181.38;5011911;28;20038;-65
2022/03/11 00:07:19;;;;;;;4.88;2.97;;;;;;;20.81;33.06;102170.91;5010243;28;20518;-65
2022/03/11 00:09:47;;;;;;;5.82;3.15;;;;;;;20.81;33.10;102170.06;5007680;28;20042;-65
2022/03/11 00:12:13;;;;;;;5.18;2.97;;;;;;;20.81;32.95;102176.19;5009001;28;20056;-66
2022/03/11 00:14:38;;;;;;;4.50;3.13;;;;;;;20.79;33.00;102169.41;5008475;28;20408;-65
2022/03/11 00:17:05;;;;;;;3.47;2.80;;;;;;;20.72;33.05;102158.59;5013240;28;20052;-65
2022/03/11 00:19:31;;;;;;;3.88;3.03;;;;;;;20.76;33.01;102173.19;5011568;28;20566;-65
2022/03/11 00:21:56;;;;;;;3.35;2.70;;;;;;;20.77;32.95;102176.66;5007746;28;20041;-65
2022/03/11 00:24:22;;;;;;;4.55;3.03;;;;;;;20.72;33.05;102178.94;5010837;28;20856;-66
2022/03/11 00:26:48;;;;;;;5.13;3.10;;;;;;;20.71;32.79;102166.69;5012347;28;20030;-65
2022/03/11 00:29:14;;;;;;;4.65;3.00;;;;;;;20.72;32.81;102182.41;5006971;28;20558;-65
2022/03/11 00:31:39;;;;;;;6.30;3.25;;;;;;;20.71;32.72;102175.47;5007208;28;20037;-66
2022/03/11 00:34:05;;;;;;;5.03;3.25;;;;;;;20.63;33.00;102170.09;5009265;28;20046;-65
2022/03/11 00:36:32;;;;;;;4.13;3.03;;;;;;;20.59;32.99;102163.44;5008602;28;20044;-65
2022/03/11 00:38:57;;;;;;;4.43;3.03;;;;;;;20.65;32.96;102165.50;5010186;28;20040;-65
2022/03/11 00:41:23;;;;;;;3.60;2.67;;;;;;;20.64;32.90;102160.34;5008315;28;20045;-65
2022/03/11 00:43:48;;;;;;;4.07;3.10;;;;;;;20.66;32.83;102175.09;5027195;28;20041;-65
2022/03/11 00:46:14;;;;;;;4.95;3.03;;;;;;;20.63;32.88;102166.59;5012012;28;20088;-65
2022/03/11 00:48:40;;;;;;;3.17;2.38;;;;;;;20.59;32.80;102159.97;5007116;28;20600;-65
2022/03/11 00:51:07;;;;;;;3.05;2.53;;;;;;;20.64;32.78;102168.28;5012138;28;20045;-66
2022/03/11 00:53:32;;;;;;;3.55;2.85;;;;;;;20.46;32.86;102139.19;5024282;28;20049;-64
2022/03/11 00:55:58;;;;;;;4.43;3.10;;;;;;;20.59;32.80;102158.16;5003787;28;20045;-65
2022/03/11 00:58:23;;;;;;;4.55;2.90;;;;;;;20.58;32.81;102169.72;5011921;28;20127;-65
2022/03/11 01:00:49;;;;;;;4.90;3.20;;;;;;;20.56;32.92;102165.56;5008073;28;20444;-65
2022/03/11 01:03:15;;;;;;;3.92;3.03;;;;;;;20.57;32.71;102164.59;5009722;28;20052;-65
2022/03/11 01:05:40;;;;;;;4.88;2.88;;;;;;;20.47;32.65;102144.34;5014806;28;20064;-64
2022/03/11 01:08:06;;;;;;;3.42;2.63;;;;;;;20.49;32.77;102154.78;5005424;28;20052;-64
2022/03/11 01:10:32;;;;;;;4.50;2.97;;;;;;;20.49;32.87;102154.78;5010273;28;20104;-65
2022/03/11 01:12:57;;;;;;;4.45;2.90;;;;;;;20.46;32.83;102155.06;5014789;28;20041;-65
2022/03/11 01:15:23;;;;;;;4.63;3.17;;;;;;;20.47;32.73;102147.00;5012942;28;20119;-64
2022/03/11 01:17:48;;;;;;;4.82;3.00;;;;;;;20.47;32.76;102151.44;5008322;28;20052;-65
2022/03/11 01:20:14;;;;;;;5.00;3.17;;;;;;;20.46;32.71;102141.81;5008101;28;20030;-64
2022/03/11 01:22:40;;;;;;;5.60;3.03;;;;;;;20.39;32.85;102133.63;5010796;28;20049;-65
2022/03/11 01:25:07;;;;;;;3.55;2.78;;;;;;;20.45;32.65;102143.63;5012746;28;20797;-65
2022/03/11 01:27:33;;;;;;;5.05;3.00;;;;;;;20.36;32.70;102135.75;5020284;28;20625;-65
2022/03/11 01:29:58;;;;;;;4.22;3.25;;;;;;;20.41;32.71;102142.28;5012789;28;20087;-65
2022/03/11 01:32:24;;;;;;;4.63;3.10;;;;;;;20.39;32.70;102132.81;5013337;28;20045;-65
2022/03/11 01:34:50;;;;;;;3.60;2.78;;;;;;;20.33;32.69;102128.97;5027861;28;20042;-65
2022/03/11 01:37:15;;;;;;;3.67;3.00;;;;;;;20.38;32.68;102131.16;5016063;28;20045;-65
2022/03/11 01:39:41;;;;;;;4.32;2.88;;;;;;;20.26;32.70;102114.66;5012451;28;20053;-65
2022/03/11 01:42:07;;;;;;;4.57;3.00;;;;;;;20.35;32.69;102128.81;5010827;28;20044;-65
2022/03/11 01:44:34;;;;;;;4.10;2.70;;;;;;;20.32;32.65;102118.53;5014275;28;20033;-65
2022/03/11 01:46:59;;;;;;;4.30;3.50;;;;;;;20.23;32.64;102107.88;5010392;28;20065;-65
2022/03/11 01:49:25;;;;;;;4.18;3.03;;;;;;;20.20;32.57;102099.41;5012890;28;20400;-65
2022/03/11 01:51:51;;;;;;;5.65;2.80;;;;;;;20.17;32.62;102087.31;5016484;28;20076;-65
2022/03/11 01:54:17;;;;;;;4.82;2.60;;;;;;;20.20;32.79;102110.81;5012899;28;20135;-64
2022/03/11 01:56:43;;;;;;;4.32;3.15;;;;;;;20.18;32.67;102101.38;5009512;28;20037;-64
2022/03/11 01:59:11;;;;;;;4.72;3.22;;;;;;;20.13;32.50;102099.19;5011212;28;20120;-65
2022/03/11 02:01:37;;;;;;;5.38;3.22;;;;;;;20.08;32.90;102090.84;5014753;28;20037;-65
2022/03/11 02:04:02;;;;;;;3.50;2.75;;;;;;;20.07;32.98;102091.84;5012337;28;20144;-65
2022/03/11 02:06:28;;;;;;;6.38;2.95;;;;;;;20.11;32.77;102105.63;5017223;28;20054;-64
2022/03/11 02:08:55;;;;;;;4.65;2.80;;;;;;;20.11;32.89;102097.69;5013278;28;20029;-64
2022/03/11 02:11:21;;;;;;;4.03;3.00;;;;;;;20.10;32.68;102098.63;5016132;28;20049;-64
2022/03/11 02:13:57;;;;;;;4.20;3.10;;;;;;;20.09;32.77;102102.25;5015504;28;20039;-65
2022/03/11 02:16:37;;;;;;;5.00;2.78;;;;;;;20.00;32.72;102082.84;5012911;28;20041;-64
2022/03/11 02:19:04;;;;;;;4.10;3.00;;;;;;;20.04;32.93;102081.56;5014992;28;20602;-64
2022/03/11 02:21:30;;;;;;;4.85;3.13;;;;;;;20.05;32.80;102085.03;5008643;28;20393;-65
2022/03/11 02:23:59;;;;;;;4.45;3.20;;;;;;;20.02;32.96;102080.06;5007759;28;20053;-65
2022/03/11 02:26:27;;;;;;;3.65;2.70;;;;;;;20.03;32.94;102079.09;5012310;28;20143;-65
2022/03/11 02:28:54;;;;;;;4.22;2.92;;;;;;;20.02;32.88;102075.59;5010794;28;20029;-64
2022/03/11 02:31:23;;;;;;;4.57;3.08;;;;;;;19.98;32.86;102070.78;5009156;28;20587;-64
2022/03/11 02:33:49;;;;;;;6.75;3.20;;;;;;;20.01;32.88;102071.31;5017804;28;20558;-65
2022/03/11 02:36:14;;;;;;;5.20;2.92;;;;;;;19.99;32.92;102077.72;5009352;28;20048;-65
2022/03/11 02:38:40;;;;;;;4.45;3.17;;;;;;;20.01;32.83;102075.75;5006840;28;20029;-65
2022/03/11 02:41:06;;;;;;;3.72;3.08;;;;;;;19.98;32.77;102073.41;5008777;28;20049;-65
2022/03/11 02:43:32;;;;;;;4.50;3.20;;;;;;;19.97;32.79;102069.13;5013268;28;20392;-65
2022/03/11 02:45:59;;;;;;;5.03;3.33;;;;;;;19.96;32.76;102068.28;5015700;28;20033;-65
2022/03/11 02:48:25;;;;;;;5.35;3.17;;;;;;;19.96;32.92;102057.72;5013016;28;20042;-65
2022/03/11 02:50:50;;;;;;;4.97;3.47;;;;;;;19.91;32.71;102059.94;5011546;28;20037;-65
2022/03/11 02:53:16;;;;;;;5.38;3.38;;;;;;;19.93;32.83;102055.38;5014829;28;20094;-65
2022/03/11 02:55:41;;;;;;;5.18;3.67;;;;;;;19.95;32.77;102057.88;5008510;28;20038;-65
2022/03/11 02:58:07;;;;;;;4.72;3.40;;;;;;;19.86;32.90;102044.56;5008969;28;20457;-65
2022/03/11 03:00:33;;;;;;;4.72;3.22;;;;;;;19.90;32.82;102053.84;5008171;28;20480;-65
2022/03/11 03:02:59;;;;;;;4.20;3.20;;;;;;;19.90;32.84;102050.38;5009657;28;20038;-68
2022/03/11 03:05:24;;;;;;;4.88;3.70;;;;;;;19.86;32.74;102039.25;5013052;28;20037;-67
2022/03/11 03:07:50;;;;;;;4.97;3.47;;;;;;;19.85;32.79;102045.53;5006493;28;20041;-68
2022/03/11 03:10:16;;;;;;;5.03;3.55;;;;;;;19.83;32.93;102039.56;5008849;28;20495;-67
2022/03/11 03:12:41;;;;;;;4.72;3.60;;;;;;;19.62;32.68;102004.69;5016584;28;20049;-68
2022/03/11 03:15:08;;;;;;;5.32;3.38;;;;;;;19.80;32.98;102037.22;5013739;28;20099;-67
2022/03/11 03:17:34;;;;;;;4.68;3.42;;;;;;;19.77;32.96;102023.50;5010886;28;20095;-68
2022/03/11 03:20:01;;;;;;;5.55;3.72;;;;;;;19.82;32.88;102037.09;5007398;28;20112;-67
2022/03/11 03:22:26;;;;;;;6.25;3.47;;;;;;;19.83;32.82;102033.44;5009233;28;20041;-67
2022/03/11 03:24:52;;;;;;;6.75;4.07;;;;;;;19.82;32.76;102029.16;4967486;28;1103061;-67
2022/03/11 03:27:17;;;;;;;5.47;3.55;;;;;;;19.80;32.90;102031.13;5014445;28;20041;-67
2022/03/11 03:29:43;;;;;;;4.82;3.38;;;;;;;19.77;32.89;102020.84;5017662;28;20037;-68
2022/03/11 03:32:09;;;;;;;5.38;4.05;;;;;;;19.79;32.88;102029.47;5015943;28;20049;-68
2022/03/11 03:34:36;;;;;;;5.28;3.90;;;;;;;19.78;32.68;102022.50;5011141;28;20037;-67
2022/03/11 03:37:07;;;;;;;5.95;3.90;;;;;;;19.78;32.75;102030.44;5010660;28;20065;-67
2022/03/11 03:39:34;;;;;;;6.40;4.15;;;;;;;19.77;32.69;102024.31;5006289;28;20472;-67
2022/03/11 03:42:00;;;;;;;6.10;4.03;;;;;;;19.37;32.76;101961.28;5009967;28;20093;-67
2022/03/11 03:44:25;;;;;;;7.05;4.25;;;;;;;19.73;32.76;102027.41;5014662;28;20029;-68
2022/03/11 03:46:51;;;;;;;6.75;4.30;;;;;;;19.74;32.78;102024.59;5010469;28;20041;-67
2022/03/11 03:49:16;;;;;;;7.25;4.53;;;;;;;19.69;32.74;102018.09;5008434;28;20076;-68
2022/03/11 03:51:42;;;;;;;6.22;4.30;;;;;;;19.66;32.89;102013.97;5009264;28;20045;-68
2022/03/11 03:54:12;;;;;;;5.70;4.13;;;;;;;19.68;32.72;102008.53;5013664;28;20037;-67
2022/03/11 03:56:39;;;;;;;5.57;4.28;;;;;;;19.61;32.83;102001.22;5009070;28;20355;-67
2022/03/11 03:59:05;;;;;;;6.90;4.63;;;;;;;19.65;32.91;102012.31;5008553;28;20045;-68
2022/03/11 04:01:36;;;;;;;6.07;4.07;;;;;;;19.66;32.80;102013.13;5009255;28;20566;-67
2022/03/11 04:04:03;;;;;;;5.63;4.45;;;;;;;19.64;32.70;102020.38;5010475;28;20037;-68
2022/03/11 04:06:29;;;;;;;7.45;4.93;;;;;;;19.65;32.68;102019.41;5011574;28;20037;-67
2022/03/11 04:08:56;;;;;;;6.88;4.50;;;;;;;19.61;32.76;102006.50;5013327;28;20088;-68
2022/03/11 04:11:23;;;;;;;8.23;4.57;;;;;;;19.58;32.76;102011.25;5012410;28;20037;-67
2022/03/11 04:13:50;;;;;;;7.15;4.50;;;;;;;19.58;32.94;102005.97;5011958;28;20038;-68
2022/03/11 04:16:16;;;;;;;5.97;4.38;;;;;;;19.53;33.02;102002.88;5006048;28;20053;-68
2022/03/11 04:18:42;;;;;;;7.03;4.45;;;;;;;19.51;32.99;102010.13;5010220;28;20040;-67
2022/03/11 04:21:10;;;;;;;6.80;4.60;;;;;;;19.47;32.89;102003.50;5006543;28;20534;-68
2022/03/11 04:23:35;;;;;;;6.45;4.68;;;;;;;19.49;32.92;102009.44;5010436;28;20049;-68
2022/03/11 04:26:02;;;;;;;5.78;4.32;;;;;;;19.45;33.12;102008.94;5012818;28;20107;-67
2022/03/11 04:28:27;;;;;;;6.88;4.57;;;;;;;19.38;32.93;101992.00;5012923;28;20092;-68
2022/03/11 04:30:53;;;;;;;8.02;4.88;;;;;;;19.45;32.87;102000.16;5006045;28;20041;-68
2022/03/11 04:33:19;;;;;;;7.53;4.88;;;;;;;19.35;33.04;101984.38;5013430;28;20570;-66
2022/03/11 04:35:44;;;;;;;7.75;5.35;;;;;;;19.43;32.92;101989.75;5010052;28;20452;-69
2022/03/11 04:38:10;;;;;;;6.30;4.68;;;;;;;19.43;32.81;101988.94;5013915;28;20136;-68
2022/03/11 04:40:36;;;;;;;7.47;5.00;;;;;;;19.41;32.99;101989.06;5013502;28;20052;-68
2022/03/11 04:43:02;;;;;;;6.15;4.93;;;;;;;19.39;32.93;101988.41;5010615;28;20045;-68
2022/03/11 04:45:28;;;;;;;7.53;5.32;;;;;;;19.28;32.94;101970.94;5009411;28;20037;-69
2022/03/11 04:47:54;;;;;;;6.93;5.03;;;;;;;19.38;33.31;101989.34;5007886;28;20044;-69
2022/03/11 04:50:19;;;;;;;8.27;5.15;;;;;;;19.28;32.87;101970.09;5011279;28;20037;-69
2022/03/11 04:52:45;;;;;;;6.28;5.18;;;;;;;19.38;32.96;101992.00;5008494;28;20560;-68
2022/03/11 04:55:10;;;;;;;7.13;4.90;;;;;;;19.37;32.86;101989.50;5011675;28;20037;-70
2022/03/11 04:57:36;;;;;;;7.88;5.13;;;;;;;19.35;33.04;101991.47;5012223;28;20511;-70
2022/03/11 05:00:03;;;;;;;8.40;5.00;;;;;;;19.33;32.89;101986.31;5010122;28;20049;-69
2022/03/11 05:02:30;;;;;;;7.35;5.13;;;;;;;19.32;32.97;101993.41;5010016;28;20037;-68
2022/03/11 05:04:56;;;;;;;7.88;5.13;;;;;;;19.21;33.01;101976.94;5009355;28;20373;-68
2022/03/11 05:07:22;;;;;;;7.93;5.00;;;;;;;19.22;33.18;101984.75;5010392;28;20037;-69
2022/03/11 05:09:48;;;;;;;7.63;5.40;;;;;;;19.18;33.14;101993.09;5009666;28;20030;-70
2022/03/11 05:12:14;;;;;;;7.38;5.25;;;;;;;19.17;33.35;101994.91;5011039;28;20068;-70
2022/03/11 05:14:40;;;;;;;7.05;5.00;;;;;;;19.07;33.50;101977.47;5007856;28;20124;-69
2022/03/11 05:17:05;;;;;;;7.82;5.25;;;;;;;19.05;33.45;101980.25;5009582;28;20030;-69
2022/03/11 05:19:32;;;;;;;7.72;5.40;;;;;;;19.08;33.74;101990.50;5010535;28;20068;-69
2022/03/11 05:21:58;;;;;;;9.05;5.05;;;;;;;18.95;33.72;101972.34;5007445;28;20056;-68
2022/03/11 05:24:23;;;;;;;6.00;5.00;;;;;;;19.06;33.83;101994.28;4998460;28;20515;-69
2022/03/11 05:26:49;;;;;;;7.13;5.13;;;;;;;19.19;33.83;101992.94;5007060;28;20041;-69
2022/03/11 05:29:15;;;;;;;8.50;5.00;;;;;;;19.77;33.33;101983.84;5010456;28;20220;-69
2022/03/11 05:31:41;;;;;;;7.45;5.10;;;;;;;20.33;32.40;101972.88;5007376;28;20057;-69
2022/03/11 05:34:07;;;;;;;8.60;5.38;;;;;;;20.85;31.68;101980.81;5008141;28;20425;-70
2022/03/11 05:36:33;;;;;;;8.35;5.78;;;;;;;21.20;31.18;101977.16;5009925;28;20112;-69
2022/03/11 05:38:59;;;;;;;6.90;5.15;;;;;;;21.38;31.02;101959.34;5008356;28;20661;-69
2022/03/11 05:41:25;;;;;;;7.18;4.93;;;;;;;21.75;30.91;101967.84;5008333;28;20042;-69
2022/03/11 05:43:50;;;;;;;7.22;4.82;;;;;;;21.76;30.96;101974.81;5011941;28;20065;-68
2022/03/11 05:46:16;;;;;;;6.00;4.80;;;;;;;21.51;30.94;101965.97;5013192;28;20107;-69
2022/03/11 05:48:43;;;;;;;7.28;5.05;;;;;;;21.46;31.32;101971.78;5008933;28;20073;-69
2022/03/11 05:51:09;;;;;;;6.85;5.00;;;;;;;21.12;31.47;101956.75;5008061;28;20556;-70
2022/03/11 05:53:35;;;;;;;6.35;4.63;;;;;;;21.08;32.07;101967.84;5007651;28;20053;-68
2022/03/11 05:56:00;;;;;;;6.00;4.55;;;;;;;21.01;32.09;101967.66;5007656;28;20073;-69
2022/03/11 05:58:26;;;;;;;6.93;5.43;;;;;;;20.97;32.21;101970.75;5014304;28;20073;-69
2022/03/11 06:00:52;;;;;;;7.38;5.35;;;;;;;20.98;31.88;101960.00;5009708;28;20037;-69
2022/03/11 06:03:17;;;;;;;8.68;4.85;;;;;;;20.93;32.21;101957.00;5012224;28;20053;-68
2022/03/11 06:05:43;;;;;;;6.43;4.43;;;;;;;21.08;32.19;101955.41;5006765;28;20048;-69
2022/03/11 06:08:08;;;;;;;7.57;5.15;;;;;;;21.04;31.71;101917.00;5011405;28;20037;-68
2022/03/11 06:10:34;;;;;;;6.80;5.05;;;;;;;21.40;31.65;101953.88;5013134;28;20040;-69
2022/03/11 06:13:00;;;;;;;7.70;5.38;;;;;;;21.59;31.35;101955.41;5010668;28;20053;-69
2022/03/11 06:15:26;;;;;;;6.88;4.93;;;;;;;21.75;31.35;101954.59;5013439;28;20052;-69
2022/03/11 06:17:51;;;;;;;7.22;4.80;;;;;;;21.92;30.87;101950.94;5012104;28;20054;-69
2022/03/11 06:20:17;;;;;;;9.70;5.47;;;;;;;21.92;31.08;101946.47;5012373;28;20049;-69
2022/03/11 06:22:50;;;;;;;6.75;5.03;;;;;;;21.75;31.30;101952.75;5014339;28;20079;-68
2022/03/11 06:25:20;;;;;;;6.60;4.72;;;;;;;21.62;31.60;101958.53;5008790;28;20057;-69
2022/03/11 06:27:46;;;;;;;9.98;5.75;;;;;;;21.40;31.74;101952.06;5009417;28;20537;-69
2022/03/11 06:30:12;;;;;;;7.38;5.20;;;;;;;21.35;31.93;101957.00;5014183;28;20601;-70
2022/03/11 06:32:42;;;;;;;7.15;5.32;;;;;;;21.25;32.01;101955.50;5013305;28;20041;-68
2022/03/11 06:35:09;;;;;;;7.30;5.47;;;;;;;21.15;31.97;101947.66;5013434;28;20045;-70
2022/03/11 06:37:35;;;;;;;6.53;4.72;;;;;;;21.05;32.00;101950.44;5008652;28;20057;-69
2022/03/11 06:40:00;;;;;;;7.40;5.05;;;;;;;21.02;32.25;101956.06;5009483;28;20300;-70
2022/03/11 06:42:34;;;;;;;8.98;5.57;;;;;;;20.88;32.32;101948.72;5012042;28;20476;-69
2022/03/11 06:44:59;;;;;;;8.30;5.40;;;;;;;20.95;32.36;101959.50;5009395;28;20124;-68
2022/03/11 06:47:25;;;;;;;6.90;4.95;;;;;;;21.19;31.99;101950.81;5010748;28;20052;-69
2022/03/11 06:49:50;;;;;;;6.70;4.72;;;;;;;21.65;31.35;101954.72;5012432;28;20538;-69
2022/03/11 06:52:16;;;;;;;9.18;5.50;;;;;;;21.78;31.23;101956.91;5011629;28;20038;-69
2022/03/11 06:54:41;;;;;;;7.70;5.18;;;;;;;22.08;30.72;101947.47;5010401;28;20502;-69
2022/03/11 06:57:07;;;;;;;6.68;5.05;;;;;;;21.87;31.02;101934.69;5010798;28;20037;-68
2022/03/11 06:59:32;;;;;;;6.97;4.78;;;;;;;21.88;31.13;101941.63;5010303;28;20053;-69
2022/03/11 07:01:58;;;;;;;6.50;5.22;;;;;;;21.78;31.19;101946.28;5013689;28;20056;-68
2022/03/11 07:04:27;;;;;;;7.80;5.18;;;;;;;21.66;31.57;101943.97;5014680;28;20064;-69
2022/03/11 07:06:53;;;;;;;7.22;5.43;;;;;;;21.45;31.44;101925.06;5015081;28;20041;-69
2022/03/11 07:09:18;;;;;;;7.75;5.22;;;;;;;21.42;31.88;101934.19;5007809;28;20037;-69
2022/03/11 07:11:46;;;;;;;6.60;5.07;;;;;;;21.08;31.70;101902.44;5010833;28;20496;-69
2022/03/11 07:14:12;;;;;;;6.60;4.97;;;;;;;21.22;32.30;101935.44;5005699;28;20042;-68
2022/03/11 07:16:38;;;;;;;8.48;5.30;;;;;;;21.15;32.16;101933.56;5011379;28;20037;-69
2022/03/11 07:19:03;;;;;;;6.82;5.13;;;;;;;21.06;32.29;101930.91;5008587;28;20046;-70
2022/03/11 07:21:29;;;;;;;9.60;5.88;;;;;;;21.04;32.24;101932.91;5008863;28;20558;-69
2022/03/11 07:23:56;;;;;;;8.25;5.22;;;;;;;21.00;32.28;101928.91;5006535;28;21814;-68
2022/03/11 07:26:22;;;;;;;7.30;5.07;;;;;;;20.99;32.28;101919.28;5012491;28;20048;-69
2022/03/11 07:28:48;;;;;;;7.53;5.43;;;;;;;20.93;32.47;101919.13;5012047;28;20444;-69
2022/03/11 07:31:13;;;;;;;6.45;5.00;;;;;;;20.62;32.61;101889.72;5014957;28;20438;-68
2022/03/11 07:33:39;;;;;;;8.07;5.10;;;;;;;20.76;32.76;101923.53;5007954;28;20041;-69
2022/03/11 07:36:05;;;;;;;7.95;4.97;;;;;;;20.58;33.03;101910.38;5012315;28;20068;-69
2022/03/11 07:38:31;;;;;;;8.80;4.97;;;;;;;20.65;32.97;101915.88;5006820;28;20033;-68
2022/03/11 07:40:59;;;;;;;7.15;5.20;;;;;;;20.59;33.00;101916.50;5008345;28;20053;-69
2022/03/11 07:43:26;;;;;;;6.60;4.95;;;;;;;20.54;33.07;101916.16;5010148;28;20396;-69
2022/03/11 07:45:52;;;;;;;9.48;5.55;;;;;;;20.48;33.04;101913.16;5008032;28;20109;-68
2022/03/11 07:48:18;;;;;;;8.32;5.35;;;;;;;20.75;32.76;101921.88;5011426;28;20053;-69
2022/03/11 07:50:44;;;;;;;7.32;4.90;;;;;;;21.01;32.47;101921.81;5006906;28;20722;-69
2022/03/11 07:53:10;;;;;;;6.38;4.57;;;;;;;21.29;31.96;101930.34;5011694;28;20048;-69
2022/03/11 07:55:36;;;;;;;6.78;5.10;;;;;;;21.38;32.21;101929.38;5009554;28;20034;-69
2022/03/11 07:58:02;;;;;;;7.30;5.13;;;;;;;21.27;32.17;101927.84;5011385;28;20054;-68
2022/03/11 08:00:27;;;;;;;7.80;5.25;;;;;;;21.23;32.17;101918.53;5014630;28;20053;-68
2022/03/11 08:02:53;;;;;;;6.47;5.05;;;;;;;21.08;32.45;101915.69;5009902;28;20041;-68
2022/03/11 08:05:18;;;;;;;9.35;5.25;;;;;;;20.90;32.50;101907.03;5010295;28;20042;-68
2022/03/11 08:07:49;;;;;;;7.45;5.05;;;;;;;21.07;32.56;101924.63;5011244;28;20765;-68
2022/03/11 08:10:18;;;;;;;7.13;5.03;;;;;;;21.08;32.52;101918.34;5007135;28;20702;-69
2022/03/11 08:12:43;;;;;;;6.85;5.10;;;;;;;21.00;32.47;101909.53;5013502;28;20033;-68
2022/03/11 08:15:11;;;;;;;7.03;5.00;;;;;;;21.02;32.44;101924.28;5007389;28;21989;-68
2022/03/11 08:17:38;;;;;;;7.72;5.40;;;;;;;20.97;32.50;101917.78;5014161;28;20038;-69
2022/03/11 08:20:06;;;;;;;9.77;5.43;;;;;;;20.87;32.62;101909.19;5013223;28;20042;-68
2022/03/11 08:22:34;;;;;;;7.85;5.40;;;;;;;20.67;32.99;101880.31;5010981;28;20836;-68
2022/03/11 08:25:03;;;;;;;8.75;5.47;;;;;;;20.83;33.10;101908.69;5007395;28;20062;-68
2022/03/11 08:27:28;;;;;;;8.80;5.63;;;;;;;20.76;33.11;101911.13;5012148;28;20418;-68
2022/03/11 08:29:54;;;;;;;6.75;5.00;;;;;;;20.68;33.08;101902.31;5018044;28;20027;-68
2022/03/11 08:32:19;;;;;;;7.57;6.32;;;;;;;20.70;33.15;101900.34;5017016;28;20045;-68
2022/03/11 08:34:45;;;;;;;7.00;5.22;;;;;;;20.60;33.09;101889.88;5017783;28;20505;-68
2022/03/11 08:37:10;;;;;;;10.25;6.70;;;;;;;20.77;32.28;101896.06;5015726;28;20041;-65
2022/03/11 08:39:36;;;;;;;9.45;7.25;;;;;;;20.81;32.77;101897.38;5011786;28;20096;-65
2022/03/11 08:42:02;;;;;;;11.63;6.72;;;;;;;20.63;32.90;101880.78;5017254;28;20464;-67
2022/03/11 08:44:27;;;;;;;9.65;6.35;;;;;;;20.61;33.39;101899.47;5015572;28;20058;-67
2022/03/11 08:46:53;;;;;;;9.63;6.22;;;;;;;20.74;33.23;101893.75;5012258;28;20041;-67
2022/03/11 08:49:18;;;;;;;10.07;6.40;;;;;;;21.03;32.79;101888.03;5011675;28;20030;-66
2022/03/11 08:51:44;;;;;;;8.88;6.10;;;;;;;21.14;32.22;101863.88;5008208;28;20095;-67
2022/03/11 08:54:11;;;;;;;8.15;5.35;;;;;;;21.39;32.13;101880.69;4999992;28;20069;-67
2022/03/11 08:56:38;;;;;;;9.25;5.63;;;;;;;21.36;31.96;101876.53;5011036;28;20040;-67
2022/03/11 08:59:05;;;;;;;7.68;5.85;;;;;;;21.22;32.10;101869.22;5010845;28;20705;-67
2022/03/11 09:01:30;;;;;;;10.43;5.80;;;;;;;21.31;32.13;101876.19;5021989;28;20252;-67
2022/03/11 09:03:56;;;;;;;8.27;5.93;;;;;;;21.17;32.27;101868.03;5008754;28;20036;-67
2022/03/11 09:06:22;;;;;;;8.25;5.63;;;;;;;21.17;32.40;101868.84;5019239;28;20053;-67
2022/03/11 09:08:47;;;;;;;8.35;6.00;;;;;;;21.15;32.19;101872.66;5021867;28;20025;-67
2022/03/11 09:11:13;;;;;;;10.13;5.75;;;;;;;21.10;32.31;101875.81;5015465;28;20579;-67
2022/03/11 09:13:39;;;;;;;6.75;5.15;;;;;;;21.08;32.35;101865.38;5014697;28;20053;-67
2022/03/11 09:16:05;;;;;;;7.63;5.53;;;;;;;21.02;32.53;101854.63;5020925;28;20036;-67
2022/03/11 09:18:31;;;;;;;8.32;5.40;;;;;;;21.00;32.63;101854.75;5012346;28;20045;-67
2022/03/11 09:20:57;;;;;;;6.93;5.50;;;;;;;20.95;32.60;101846.47;5018294;28;20049;-67
2022/03/11 09:23:23;;;;;;;8.13;5.57;;;;;;;20.90;32.79;101837.38;5013415;28;20057;-67
2022/03/11 09:25:50;;;;;;;7.28;5.53;;;;;;;20.87;32.60;101838.53;5009738;28;20048;-67
2022/03/11 09:28:15;;;;;;;7.63;5.68;;;;;;;20.85;32.64;101850.28;5008254;28;20913;-67
2022/03/11 09:30:41;;;;;;;8.60;5.90;;;;;;;20.53;32.78;101796.25;5014342;28;20058;-67
2022/03/11 09:33:06;;;;;;;8.13;5.90;;;;;;;20.82;32.83;101846.09;5012686;28;20046;-67
2022/03/11 09:35:32;;;;;;;7.15;5.28;;;;;;;20.76;32.76;101830.88;5014780;28;20128;-67
2022/03/11 09:37:57;;;;;;;8.27;5.40;;;;;;;20.87;32.72;101830.59;5015858;28;20042;-67
2022/03/11 09:40:23;;;;;;;8.95;5.40;;;;;;;21.07;32.40;101833.75;5016521;28;20544;-67
2022/03/11 09:42:50;;;;;;;9.68;5.82;;;;;;;21.16;32.47;101819.53;5018541;28;20041;-68
2022/03/11 09:45:18;;;;;;;11.10;5.60;;;;;;;21.34;31.81;101800.84;5025345;28;20060;-67
2022/03/11 09:47:44;;;;;;;8.60;5.70;;;;;;;21.50;31.85;101821.22;5015197;28;20068;-67
2022/03/11 09:50:10;;;;;;;9.13;5.97;;;;;;;21.41;31.60;101815.94;5020487;28;20125;-67
2022/03/11 09:52:38;;;;;;;7.10;5.65;;;;;;;21.32;31.78;101811.59;5023830;28;20037;-67
2022/03/11 09:55:04;;;;;;;7.80;5.65;;;;;;;21.28;31.95;101822.72;5020920;28;20038;-67
2022/03/11 09:57:30;;;;;;;6.63;5.10;;;;;;;21.17;31.91;101807.09;5019052;28;20025;-67
2022/03/11 09:59:57;;;;;;;6.68;5.13;;;;;;;21.18;32.04;101806.09;5020571;28;20038;-67
2022/03/11 10:02:23;;;;;;;7.65;5.25;;;;;;;21.11;32.18;101806.78;5015548;28;20041;-67
2022/03/11 10:04:50;;;;;;;7.38;6.00;;;;;;;21.10;32.31;101805.13;5012144;28;20121;-67
2022/03/11 10:07:35;;;;;;;8.75;5.70;;;;;;;21.09;32.14;101790.22;5018929;28;20424;-67
2022/03/11 10:10:19;;;;;;;7.90;5.60;;;;;;;21.03;32.27;101787.41;5017854;28;20049;-67
2022/03/11 10:12:46;;;;;;;7.85;5.30;;;;;;;20.95;32.58;101796.16;5003627;28;20569;-67
2022/03/11 10:15:14;;;;;;;8.20;5.35;;;;;;;20.89;32.73;101790.72;5020437;28;20411;-67
2022/03/11 10:17:42;;;;;;;7.50;5.47;;;;;;;20.88;33.07;101795.16;5020096;28;20403;-67
2022/03/11 10:20:15;;;;;;;6.95;5.45;;;;;;;20.79;32.92;101777.59;5016481;28;20541;-67
2022/03/11 10:22:45;;;;;;;8.88;5.50;;;;;;;20.81;32.99;101786.22;5023000;28;20116;-67
2022/03/11 10:25:17;;;;;;;6.78;5.20;;;;;;;20.79;32.92;101783.72;5025366;28;20523;-67
2022/03/11 10:28:03;;;;;;;7.70;5.15;;;;;;;20.80;32.77;101781.91;5019695;28;20029;-67
2022/03/11 10:30:31;;;;;;;8.43;5.88;;;;;;;20.77;32.86;101779.59;5015722;28;20052;-67
2022/03/11 10:32:59;;;;;;;8.02;5.47;;;;;;;20.74;32.91;101790.50;5022850;28;20122;-67
2022/03/11 10:35:36;;;;;;;6.55;5.30;;;;;;;20.66;32.70;101771.97;5020909;28;20037;-68
2022/03/11 10:38:02;;;;;;;7.40;5.82;;;;;;;20.80;32.95;101782.72;5016482;28;20427;-66
2022/03/11 10:40:29;;;;;;;7.60;5.45;;;;;;;20.97;32.10;101777.47;5021735;28;20040;-67
2022/03/11 10:43:09;;;;;;;7.63;6.00;;;;;;;21.08;32.02;101772.69;5020666;28;20033;-67
2022/03/11 10:46:09;;;;;;;7.43;5.63;;;;;;;21.08;32.07;101770.03;5019439;28;20132;-67
2022/03/11 10:48:54;;;;;;;6.95;5.60;;;;;;;21.13;32.22;101774.81;5020453;28;20037;-67
2022/03/11 10:51:34;;;;;;;8.13;5.82;;;;;;;21.22;31.78;101770.38;5022897;28;20124;-66
2022/03/11 10:54:02;;;;;;;8.07;5.72;;;;;;;21.16;31.86;101761.25;5020766;28;20042;-67
2022/03/11 10:56:33;;;;;;;10.77;5.82;;;;;;;21.08;32.22;101751.50;5013521;28;20034;-67
2022/03/11 10:58:59;;;;;;;7.22;5.90;;;;;;;21.06;31.98;101752.66;5022481;28;20052;-67
2022/03/11 11:01:44;;;;;;;8.57;5.53;;;;;;;21.00;32.25;101755.94;5020545;28;20035;-67
2022/03/11 11:04:12;;;;;;;6.50;5.32;;;;;;;20.95;32.27;101760.91;5020577;28;20037;-67
2022/03/11 11:06:39;;;;;;;8.68;6.00;;;;;;;20.93;32.06;101760.25;5015609;28;20033;-67
2022/03/11 11:09:08;;;;;;;7.85;5.97;;;;;;;20.82;32.46;101745.50;5017297;28;20064;-67
2022/03/11 11:11:34;;;;;;;7.13;5.53;;;;;;;20.56;32.33;101700.66;5021742;28;20048;-67
2022/03/11 11:14:04;;;;;;;7.35;6.00;;;;;;;20.86;32.16;101743.38;5019342;28;20045;-67
2022/03/11 11:16:30;;;;;;;;;;;;;;;20.88;32.24;101755.47;5013779;28;20068;-67
2022/03/11 11:18:59;;;;;;;7.15;5.30;;;;;;;20.85;32.30;101736.44;5014592;28;19925;-67
2022/03/11 11:21:26;;;;;;;7.85;5.88;;;;;;;20.92;32.26;101738.25;5017641;28;20559;-67
2022/03/11 11:23:56;;;;;;;7.90;5.70;;;;;;;21.14;32.02;101739.41;5023589;28;20103;-67